createdAt,value
2022-09-12T00:01:27.717Z,10.20
2022-09-12T00:04:03.756Z,10.10
2022-09-12T00:06:38.307Z,12.50
2022-09-12T00:09:14.571Z,10.50
2022-09-12T00:11:48.677Z,14.10
2022-09-12T00:14:22.249Z,11.80
2022-09-12T00:16:58.697Z,11.70
2022-09-12T00:19:31.800Z,11.20
2022-09-12T00:22:04.869Z,13.10
2022-09-12T00:24:37.752Z,15.60
2022-09-12T00:27:10.755Z,13.60
2022-09-12T00:29:44.337Z,11.90
2022-09-12T00:32:17.125Z,13.80
2022-09-12T00:34:50.310Z,17.70
2022-09-12T00:37:22.992Z,10.90
2022-09-12T00:39:56.764Z,16.60
2022-09-12T00:42:29.674Z,13.80
2022-09-12T00:45:02.255Z,11.80
2022-09-12T00:47:36.727Z,13.60
2022-09-12T00:50:13.640Z,11.70
2022-09-12T00:52:52.489Z,8.80
2022-09-12T00:55:29.126Z,9.40
2022-09-12T00:58:06.955Z,12.40
2022-09-12T01:00:40.058Z,12.20
2022-09-12T01:03:15.936Z,13.40
2022-09-12T01:06:00.151Z,13.80
2022-09-12T01:08:34.540Z,11.00
2022-09-12T01:11:08.037Z,10.70
2022-09-12T01:13:40.855Z,11.90
2022-09-12T01:16:14.006Z,11.00
2022-09-12T01:19:09.454Z,11.70
2022-09-12T01:21:57.113Z,11.90
2022-09-12T01:25:08.344Z,10.50
2022-09-12T01:28:01.530Z,14.50
2022-09-12T01:30:53.278Z,9.70
2022-09-12T01:33:50.033Z,13.10
2022-09-12T01:36:46.129Z,15.30
2022-09-12T01:39:31.711Z,12.50
2022-09-12T01:42:17.189Z,11.30
2022-09-12T01:45:03.410Z,10.20
2022-09-12T01:47:44.470Z,11.00
2022-09-12T01:50:21.794Z,10.60
2022-09-12T01:52:59.346Z,12.00
2022-09-12T01:55:36.428Z,10.20
2022-09-12T01:58:14.542Z,11.10
2022-09-12T02:01:01.311Z,10.70
2022-09-12T02:03:41.191Z,11.10
2022-09-12T02:06:21.109Z,11.80
2022-09-12T02:08:57.507Z,12.30
2022-09-12T02:11:32.645Z,13.20
2022-09-12T02:14:12.807Z,10.80
2022-09-12T02:16:51.435Z,11.80
2022-09-12T02:19:28.472Z,10.40
2022-09-12T02:22:04.870Z,11.30
2022-09-12T02:24:41.556Z,10.90
2022-09-12T02:27:19.623Z,12.70
2022-09-12T02:29:52.809Z,11.50
2022-09-12T02:32:36.547Z,9.40
2022-09-12T02:35:18.791Z,10.90
2022-09-12T02:38:01.294Z,11.90
2022-09-12T02:40:34.851Z,10.10
2022-09-12T02:43:08.463Z,11.50
2022-09-12T02:45:41.357Z,10.00
2022-09-12T02:48:20.646Z,9.70
2022-09-12T02:50:53.439Z,12.40
2022-09-12T02:53:27.263Z,10.40
2022-09-12T02:56:00.162Z,10.00
2022-09-12T02:58:34.977Z,11.80
2022-09-12T03:01:20.339Z,9.30
2022-09-12T03:04:15.909Z,14.10
2022-09-12T03:06:59.607Z,11.50
2022-09-12T03:09:44.357Z,18.60
2022-09-12T03:12:36.035Z,9.10
2022-09-12T03:15:29.400Z,12.80
2022-09-12T03:18:26.965Z,12.30
2022-09-12T03:21:11.932Z,10.80
2022-09-12T03:23:52.294Z,10.20
2022-09-12T03:26:37.733Z,11.10
2022-09-12T03:29:12.499Z,12.70
2022-09-12T03:31:56.084Z,12.70
2022-09-12T03:34:30.437Z,15.70
2022-09-12T03:37:03.239Z,17.10
2022-09-12T03:39:36.013Z,9.20
2022-09-12T03:42:09.113Z,17.80
2022-09-12T03:44:41.793Z,18.70
2022-09-12T03:47:14.675Z,13.90
2022-09-12T03:49:47.676Z,12.00
2022-09-12T03:52:20.371Z,10.90
2022-09-12T03:54:53.021Z,13.00
2022-09-12T03:57:25.805Z,14.30
2022-09-12T03:59:58.809Z,12.50
2022-09-12T04:02:31.549Z,14.80
2022-09-12T04:05:04.725Z,15.80
2022-09-12T04:07:37.239Z,14.40
2022-09-12T04:10:12.552Z,10.80
2022-09-12T04:12:45.483Z,11.60
2022-09-12T04:15:18.968Z,10.20
2022-09-12T04:17:51.876Z,10.40
2022-09-12T04:20:25.067Z,16.90
2022-09-12T04:22:57.633Z,9.80
2022-09-12T04:25:31.574Z,11.30
2022-09-12T04:28:05.227Z,11.00
2022-09-12T04:30:39.475Z,14.40
2022-09-12T04:33:12.327Z,9.90
2022-09-12T04:35:45.828Z,11.50
2022-09-12T04:38:18.920Z,11.00
2022-09-12T04:40:51.702Z,13.00
2022-09-12T04:43:24.297Z,14.30
2022-09-12T04:45:57.134Z,9.90
2022-09-12T04:48:30.081Z,11.70
2022-09-12T04:51:11.827Z,16.00
2022-09-12T04:53:45.069Z,12.10
2022-09-12T04:56:18.333Z,11.60
2022-09-12T04:58:51.410Z,10.10
2022-09-12T05:01:25.924Z,12.80
2022-09-12T05:04:00.487Z,9.40
2022-09-12T05:06:35.926Z,10.30
2022-09-12T05:09:11.751Z,11.10
2022-09-12T05:12:03.788Z,11.00
2022-09-12T05:14:38.105Z,9.00
2022-09-12T05:17:11.490Z,9.40
2022-09-12T05:19:44.491Z,15.20
2022-09-12T05:22:17.476Z,16.70
2022-09-12T05:24:50.708Z,17.30
2022-09-12T05:27:23.656Z,14.50
2022-09-12T05:29:56.681Z,8.70
2022-09-12T05:32:32.494Z,11.10
2022-09-12T05:35:05.817Z,9.90
2022-09-12T05:37:38.781Z,6.20
2022-09-12T05:40:16.640Z,12.80
2022-09-12T05:42:49.544Z,12.10
2022-09-12T05:45:22.375Z,9.50
2022-09-12T05:47:55.654Z,8.10
2022-09-12T05:50:28.451Z,8.90
2022-09-12T05:53:01.547Z,9.80
2022-09-12T05:55:34.499Z,10.80
2022-09-12T05:58:07.791Z,8.50
2022-09-12T06:00:40.889Z,12.70
2022-09-12T06:03:13.568Z,11.50
2022-09-12T06:05:50.478Z,7.70
2022-09-12T06:08:23.735Z,7.90
2022-09-12T06:11:02.466Z,7.20
2022-09-12T06:13:40.267Z,5.80
2022-09-12T06:16:19.637Z,8.00
2022-09-12T06:18:54.589Z,6.00
2022-09-12T06:21:28.605Z,6.70
2022-09-12T06:24:02.217Z,9.90
2022-09-12T06:26:35.331Z,7.80
2022-09-12T06:29:08.930Z,11.40
2022-09-12T06:31:43.983Z,7.20
2022-09-12T06:34:18.177Z,8.80
2022-09-12T06:36:52.463Z,4.90
2022-09-12T06:39:25.997Z,7.70
2022-09-12T06:41:58.687Z,9.60
2022-09-12T06:44:39.237Z,8.50
2022-09-12T06:47:12.283Z,11.70
2022-09-12T06:49:45.007Z,5.50
2022-09-12T06:52:18.321Z,12.00
2022-09-12T06:54:50.907Z,6.00
2022-09-12T06:57:23.823Z,6.70
2022-09-12T06:59:56.699Z,7.30
2022-09-12T07:02:29.497Z,4.70
2022-09-12T07:05:02.211Z,10.10
2022-09-12T07:07:36.120Z,4.90
2022-09-12T07:10:12.363Z,5.20
2022-09-12T07:12:45.064Z,8.50
2022-09-12T07:15:18.263Z,4.00
2022-09-12T07:17:50.933Z,5.60
2022-09-12T07:20:24.208Z,6.50
2022-09-12T07:22:56.908Z,7.90
2022-09-12T07:25:29.795Z,6.30
2022-09-12T07:28:02.578Z,12.20
2022-09-12T07:30:35.292Z,5.90
2022-09-12T07:33:08.047Z,3.50
2022-09-12T07:35:41.246Z,8.70
2022-09-12T07:38:14.317Z,6.90
2022-09-12T07:40:47.009Z,3.40
2022-09-12T07:43:19.690Z,2.70
2022-09-12T07:45:57.844Z,3.40
2022-09-12T07:48:30.772Z,7.00
2022-09-12T07:51:06.139Z,3.60
2022-09-12T07:53:43.483Z,3.80
2022-09-12T07:56:17.010Z,4.80
2022-09-12T07:58:50.157Z,4.70
2022-09-12T08:01:24.439Z,5.40
2022-09-12T08:04:01.707Z,4.60
2022-09-12T08:06:36.290Z,5.20
2022-09-12T08:09:12.387Z,6.50
2022-09-12T08:11:45.323Z,4.40
2022-09-12T08:14:18.769Z,5.60
2022-09-12T08:16:51.549Z,9.00
2022-09-12T08:19:24.710Z,4.90
2022-09-12T08:21:57.527Z,8.10
2022-09-12T08:24:30.529Z,5.80
2022-09-12T08:27:03.202Z,4.50
2022-09-12T08:29:35.896Z,5.30
2022-09-12T08:32:09.651Z,5.40
2022-09-12T08:34:42.255Z,3.90
2022-09-12T08:37:15.897Z,5.40
2022-09-12T08:39:48.674Z,6.50
2022-09-12T08:42:31.367Z,6.50
2022-09-12T08:45:19.901Z,6.60
2022-09-12T08:47:53.588Z,4.90
2022-09-12T08:50:31.153Z,5.10
2022-09-12T08:53:08.105Z,7.70
2022-09-12T08:55:44.919Z,8.90
2022-09-12T08:58:20.396Z,6.20
2022-09-12T09:01:15.687Z,3.70
2022-09-12T09:04:16.112Z,3.40
2022-09-12T09:10:00.583Z,6.30
2022-09-12T09:15:45.536Z,8.30
2022-09-12T09:18:25.231Z,7.50
2022-09-12T09:21:04.005Z,5.30
2022-09-12T09:23:44.152Z,4.40
2022-09-12T09:26:26.853Z,7.30
2022-09-12T09:29:03.823Z,4.60
2022-09-12T09:31:41.608Z,2.90
2022-09-12T09:34:22.087Z,4.80
2022-09-12T09:37:03.316Z,4.20
2022-09-12T09:40:01.270Z,6.90
2022-09-12T09:42:43.919Z,4.70
2022-09-12T09:45:24.413Z,5.10
2022-09-12T09:48:03.029Z,5.00
2022-09-12T09:50:35.961Z,2.60
2022-09-12T09:53:14.839Z,4.60
2022-09-12T09:55:48.242Z,4.00
2022-09-12T09:58:37.608Z,3.50
2022-09-12T10:01:17.653Z,6.50
2022-09-12T10:06:34.463Z,10.40
2022-09-12T10:09:23.931Z,5.60
2022-09-12T10:11:58.928Z,3.00
2022-09-12T10:14:39.935Z,3.90
2022-09-12T10:17:34.618Z,4.10
2022-09-12T10:20:34.199Z,6.20
2022-09-12T10:23:24.980Z,3.00
2022-09-12T10:26:02.048Z,3.00
2022-09-12T10:28:39.759Z,7.20
2022-09-12T10:31:16.784Z,6.10
2022-09-12T10:33:53.183Z,3.50
2022-09-12T10:36:27.070Z,4.40
2022-09-12T10:39:02.865Z,3.20
2022-09-12T10:41:42.147Z,6.40
2022-09-12T10:44:26.262Z,4.00
2022-09-12T10:47:01.206Z,3.80
2022-09-12T10:49:38.477Z,4.80
2022-09-12T10:52:25.257Z,3.40
2022-09-12T10:54:58.575Z,5.00
2022-09-12T10:58:15.595Z,10.20
2022-09-12T11:01:00.315Z,1.90
2022-09-12T11:03:54.515Z,3.10
2022-09-12T11:06:40.019Z,3.50
2022-09-12T11:09:23.358Z,3.00
2022-09-12T11:12:09.452Z,3.60
2022-09-12T11:14:58.459Z,2.70
2022-09-12T11:20:36.943Z,6.10
2022-09-12T11:23:46.110Z,6.80
2022-09-12T11:26:33.811Z,7.40
2022-09-12T11:29:20.419Z,13.40
2022-09-12T11:32:34.370Z,3.90
2022-09-12T11:35:19.185Z,3.10
2022-09-12T11:38:09.425Z,3.20
2022-09-12T11:40:47.599Z,1.80
2022-09-12T11:43:33.419Z,4.20
2022-09-12T11:46:16.999Z,7.50
2022-09-12T11:49:00.683Z,2.70
2022-09-12T11:51:42.611Z,2.40
2022-09-12T11:54:26.304Z,2.30
2022-09-12T11:57:09.841Z,2.30
2022-09-12T11:59:52.067Z,4.40
2022-09-12T12:02:29.461Z,1.80
2022-09-12T12:05:20.584Z,2.70
2022-09-12T12:07:57.905Z,4.40
2022-09-12T12:10:38.026Z,2.70
2022-09-12T12:13:22.571Z,6.30
2022-09-12T12:15:59.239Z,1.70
2022-09-12T12:18:34.408Z,5.70
2022-09-12T12:24:21.417Z,3.50
2022-09-12T12:27:03.927Z,5.30
2022-09-12T12:29:47.276Z,2.20
2022-09-12T12:32:30.028Z,2.10
2022-09-12T12:35:41.769Z,4.70
2022-09-12T12:38:32.253Z,3.10
2022-09-12T12:41:49.217Z,4.50
2022-09-12T12:44:53.528Z,3.30
2022-09-12T12:47:29.738Z,3.10
2022-09-12T12:50:06.218Z,2.70
2022-09-12T12:52:51.898Z,4.10
2022-09-12T12:55:29.680Z,4.80
2022-09-12T12:58:03.745Z,3.90
2022-09-12T13:00:40.028Z,3.90
2022-09-12T13:03:29.487Z,5.00
2022-09-12T13:06:04.662Z,7.10
2022-09-12T13:08:41.556Z,3.70
2022-09-12T13:11:30.248Z,1.60
2022-09-12T13:14:09.887Z,3.20
2022-09-12T13:16:56.586Z,2.90
2022-09-12T13:19:34.593Z,4.40
2022-09-12T13:22:10.483Z,3.70
2022-09-12T13:24:52.657Z,9.20
2022-09-12T13:27:27.243Z,5.80
2022-09-12T13:30:16.758Z,3.30
2022-09-12T13:32:49.532Z,5.30
2022-09-12T13:35:32.450Z,3.20
2022-09-12T13:38:13.607Z,4.30
2022-09-12T13:41:02.691Z,4.30
2022-09-12T13:43:44.669Z,7.70
2022-09-12T13:46:24.105Z,5.00
2022-09-12T13:48:57.181Z,4.40
2022-09-12T13:51:33.327Z,9.00
2022-09-12T13:54:08.124Z,4.50
2022-09-12T13:56:50.808Z,3.20
2022-09-12T13:59:23.709Z,2.70
2022-09-12T14:01:56.793Z,3.20
2022-09-12T14:05:04.726Z,4.10
2022-09-12T14:07:46.807Z,1.90
2022-09-12T14:10:28.259Z,4.60
2022-09-12T14:13:02.405Z,4.00
2022-09-12T14:15:39.246Z,3.50
2022-09-12T14:18:25.733Z,3.70
2022-09-12T14:21:04.754Z,5.50
2022-09-12T14:23:39.579Z,4.10
2022-09-12T14:26:18.009Z,3.70
2022-09-12T14:28:52.311Z,4.80
2022-09-12T14:31:34.167Z,4.70
2022-09-12T14:34:17.796Z,5.30
2022-09-12T14:36:55.423Z,2.80
2022-09-12T14:39:35.312Z,4.00
2022-09-12T14:42:15.880Z,7.00
2022-09-12T14:45:02.825Z,3.70
2022-09-12T14:47:41.307Z,8.40
2022-09-12T14:50:23.749Z,3.50
2022-09-12T14:53:22.686Z,4.30
2022-09-12T14:56:07.138Z,4.00
2022-09-12T14:58:40.663Z,5.50
2022-09-12T15:01:30.317Z,5.30
2022-09-12T15:04:03.490Z,5.90
2022-09-12T15:06:39.555Z,4.40
2022-09-12T15:09:15.949Z,3.20
2022-09-12T15:11:48.687Z,5.00
2022-09-12T15:14:22.000Z,4.80
2022-09-12T15:16:54.756Z,5.20
2022-09-12T15:19:27.472Z,3.50
2022-09-12T15:22:00.522Z,5.10
2022-09-12T15:24:33.102Z,6.10
2022-09-12T15:27:07.008Z,2.50
2022-09-12T15:29:40.004Z,3.40
2022-09-12T15:32:26.113Z,3.40
2022-09-12T15:34:59.257Z,5.40
2022-09-12T15:37:32.176Z,6.90
2022-09-12T15:40:05.997Z,3.10
2022-09-12T15:42:39.175Z,3.70
2022-09-12T15:45:21.072Z,6.10
2022-09-12T15:47:53.767Z,4.40
2022-09-12T15:50:28.401Z,11.20
2022-09-12T15:53:02.115Z,3.40
2022-09-12T15:55:36.244Z,4.10
2022-09-12T15:58:09.391Z,2.90
2022-09-12T16:00:42.062Z,4.30
2022-09-12T16:03:23.967Z,8.70
2022-09-12T16:05:59.707Z,3.90
2022-09-12T16:08:33.716Z,4.20
2022-09-12T16:11:21.147Z,3.70
2022-09-12T16:13:55.249Z,4.60
2022-09-12T16:16:28.039Z,5.00
2022-09-12T16:19:00.859Z,4.30
2022-09-12T16:21:34.183Z,5.90
2022-09-12T16:24:08.188Z,5.20
2022-09-12T16:26:41.216Z,6.10
2022-09-12T16:29:15.777Z,10.20
2022-09-12T16:31:48.418Z,4.70
2022-09-12T16:34:21.508Z,4.10
2022-09-12T16:36:54.188Z,5.80
2022-09-12T16:39:26.972Z,7.20
2022-09-12T16:41:59.993Z,6.40
2022-09-12T16:44:33.661Z,8.30
2022-09-12T16:47:06.885Z,8.40
2022-09-12T16:49:39.934Z,5.70
2022-09-12T16:52:16.847Z,6.60
2022-09-12T16:54:49.596Z,7.70
2022-09-12T16:57:22.788Z,17.10
2022-09-12T16:59:55.565Z,9.70
2022-09-12T17:02:28.680Z,15.60
2022-09-12T17:05:01.549Z,10.10
2022-09-12T17:07:34.672Z,9.60
2022-09-12T17:10:08.715Z,7.40
2022-09-12T17:12:41.427Z,10.90
2022-09-12T17:15:15.442Z,6.70
2022-09-12T17:17:48.726Z,7.70
2022-09-12T17:20:22.026Z,23.50
2022-09-12T17:22:54.704Z,17.80
2022-09-12T17:25:28.615Z,15.00
2022-09-12T17:28:02.156Z,17.20
2022-09-12T17:30:37.314Z,17.40
2022-09-12T17:33:11.673Z,16.60
2022-09-12T17:35:45.395Z,19.30
2022-09-12T17:38:22.157Z,21.40
2022-09-12T17:41:08.211Z,15.80
2022-09-12T17:43:42.155Z,19.40
2022-09-12T17:46:15.433Z,15.40
2022-09-12T17:48:51.813Z,11.60
2022-09-12T17:51:27.554Z,11.70
2022-09-12T17:54:07.122Z,13.50
2022-09-12T17:56:41.017Z,11.30
2022-09-12T17:59:19.338Z,13.70
2022-09-12T18:02:09.892Z,10.90
2022-09-12T18:07:16.286Z,13.00
2022-09-12T18:09:50.260Z,13.20
2022-09-12T18:12:23.750Z,13.30
2022-09-12T18:14:56.604Z,11.30
2022-09-12T18:17:29.291Z,26.70
2022-09-12T18:20:02.214Z,39.10
2022-09-12T18:22:35.723Z,29.40
2022-09-12T18:25:11.013Z,19.30
2022-09-12T18:27:44.710Z,13.40
2022-09-12T18:30:22.154Z,19.10
2022-09-12T18:32:55.676Z,23.90
2022-09-12T18:35:28.735Z,31.30
2022-09-12T18:38:01.977Z,33.90
2022-09-12T18:40:35.148Z,24.50
2022-09-12T18:43:08.071Z,31.60
2022-09-12T18:45:41.351Z,32.80
2022-09-12T18:48:15.160Z,37.50
2022-09-12T18:50:48.094Z,35.00
2022-09-12T18:53:22.130Z,36.80
2022-09-12T18:55:55.016Z,35.60
2022-09-12T18:58:28.461Z,40.80
2022-09-12T19:01:01.356Z,44.30
2022-09-12T19:03:34.566Z,34.80
2022-09-12T19:06:12.794Z,25.50
2022-09-12T19:08:46.320Z,19.50
2022-09-12T19:11:20.077Z,21.30
2022-09-12T19:13:55.409Z,17.90
2022-09-12T19:16:30.089Z,19.50
2022-09-12T19:19:03.761Z,11.20
2022-09-12T19:21:37.802Z,12.10
2022-09-12T19:24:12.123Z,9.90
2022-09-12T19:26:45.110Z,9.70
2022-09-12T19:29:18.703Z,14.80
2022-09-12T19:31:51.595Z,14.70
2022-09-12T19:34:25.163Z,8.90
2022-09-12T19:36:59.830Z,15.40
2022-09-12T19:39:33.526Z,15.70
2022-09-12T19:42:06.308Z,12.50
2022-09-12T19:44:39.192Z,15.20
2022-09-12T19:47:11.784Z,11.60
2022-09-12T19:49:44.879Z,12.60
2022-09-12T19:52:17.853Z,10.20
2022-09-12T19:54:50.779Z,14.30
2022-09-12T19:57:23.683Z,8.80
2022-09-12T19:59:57.019Z,11.10
2022-09-12T20:02:30.174Z,9.70
2022-09-12T20:05:03.297Z,9.20
2022-09-12T20:07:36.186Z,11.70
2022-09-12T20:10:11.386Z,16.40
2022-09-12T20:12:44.406Z,15.80
2022-09-12T20:15:17.756Z,12.50
2022-09-12T20:17:54.073Z,14.90
2022-09-12T20:20:27.467Z,14.60
2022-09-12T20:23:00.258Z,16.30
2022-09-12T20:25:34.062Z,13.30
2022-09-12T20:28:06.830Z,13.80
2022-09-12T20:30:39.666Z,14.50
2022-09-12T20:33:12.436Z,17.80
2022-09-12T20:35:45.178Z,12.60
2022-09-12T20:38:18.072Z,14.60
2022-09-12T20:40:53.613Z,13.80
2022-09-12T20:43:26.289Z,15.90
2022-09-12T20:45:59.305Z,14.50
2022-09-12T20:48:33.402Z,24.00
2022-09-12T20:51:06.274Z,13.70
2022-09-12T20:53:39.368Z,14.10
2022-09-12T20:56:12.554Z,15.50
2022-09-12T20:58:45.250Z,16.30
2022-09-12T21:01:19.076Z,10.60
2022-09-12T21:03:52.138Z,13.60
2022-09-12T21:06:25.253Z,13.90
2022-09-12T21:09:00.745Z,18.20
2022-09-12T21:11:33.794Z,16.60
2022-09-12T21:14:06.894Z,16.90
2022-09-12T21:16:39.730Z,16.10
2022-09-12T21:19:12.527Z,19.90
2022-09-12T21:21:45.443Z,17.40
2022-09-12T21:24:19.652Z,14.40
2022-09-12T21:26:52.494Z,18.00
2022-09-12T21:29:25.376Z,14.70
2022-09-12T21:31:57.970Z,11.90
2022-09-12T21:34:31.032Z,12.80
2022-09-12T21:37:03.826Z,13.50
2022-09-12T21:39:36.628Z,16.50
2022-09-12T21:42:10.268Z,11.70
2022-09-12T21:44:42.998Z,9.70
2022-09-12T21:47:15.674Z,12.50
2022-09-12T21:49:48.352Z,11.40
2022-09-12T21:52:21.034Z,10.30
2022-09-12T21:54:53.719Z,11.10
2022-09-12T21:57:26.510Z,13.30
2022-09-12T21:59:59.485Z,10.90
2022-09-12T22:02:32.369Z,15.30
2022-09-12T22:05:05.774Z,15.80
2022-09-12T22:07:39.083Z,12.70
2022-09-12T22:10:13.077Z,15.60
2022-09-12T22:12:46.511Z,10.00
2022-09-12T22:15:40.087Z,13.50
2022-09-12T22:18:13.267Z,19.20
2022-09-12T22:20:46.227Z,13.80
2022-09-12T22:23:37.071Z,11.70
2022-09-12T22:26:10.526Z,12.90
2022-09-12T22:28:43.640Z,14.40
2022-09-12T22:31:17.668Z,12.20
2022-09-12T22:33:51.763Z,14.60
2022-09-12T22:36:27.127Z,16.10
2022-09-12T22:39:02.331Z,19.30
2022-09-12T22:41:35.205Z,15.00
2022-09-12T22:44:08.184Z,11.60
2022-09-12T22:46:41.019Z,14.50
2022-09-12T22:49:14.008Z,10.40
2022-09-12T22:51:47.344Z,15.20
2022-09-12T22:54:20.442Z,15.60
2022-09-12T22:56:53.344Z,18.20
2022-09-12T22:59:26.349Z,14.50
2022-09-12T23:01:59.104Z,15.50
2022-09-12T23:04:31.879Z,16.50
2022-09-12T23:07:04.987Z,19.90
2022-09-12T23:09:37.763Z,19.40
2022-09-12T23:12:11.352Z,20.00
2022-09-12T23:14:46.356Z,19.20
2022-09-12T23:17:19.166Z,17.10
2022-09-12T23:19:52.768Z,20.40
2022-09-12T23:22:25.547Z,21.80
2022-09-12T23:24:58.226Z,20.20
2022-09-12T23:27:32.249Z,14.50
2022-09-12T23:30:07.526Z,15.40
2022-09-12T23:32:40.268Z,20.10
2022-09-12T23:35:13.448Z,15.30
2022-09-12T23:37:46.338Z,17.50
2022-09-12T23:40:19.467Z,21.40
2022-09-12T23:42:52.443Z,15.90
2022-09-12T23:45:25.255Z,20.70
2022-09-12T23:47:58.307Z,14.00
2022-09-12T23:57:14.952Z,16.40
2022-09-12T23:59:47.732Z,17.40
